Dades meteomassalio
Diari Summary for Febrer 28, 2018 Units:  Both    English   Metric
« Previous Day
Next Day »
Diari Semanal Mensual Anual Personalitzat
  Maxima: Minima: Mijana:
Temperatura: TemperatureC °F /  -17.8 °C 0.6 °F /  -17.4 °C 6.2 °F /  -14.3 °C
Rosada: DewpointC °F /  -17.8 °C -1.5 °F /  -18.6 °C 4.1 °F /  -15.5 °C
Humitat: Humidity % 76 % 86 %
Velocitat del vent: WindSpeedKMH mph /  0 km/h - 5 mph /  8 km/h
Racha vent: WindSpeedGustKMH mph /  0 km/h - -
Vent:- - SE
Pressio: PressurehPa in /  0 hPa 996.5 in /  33741.5 hPa -
Pluja: 8.9 in /  226.06 mm    
Historical Graphs
 
 
Tabular Data for Febrer 28, 2018
Time Temperature Dew Point Pressure Wind Wind Speed Wind Gust Humidity Rainfall Rate (Hourly) solar Conditions
TemperatureC °F /  -17.8 °C DewpointC °F /  -17.8 °C PressurehPa in /  0 hPa Calm     Humidity % HourlyPrecipMM in /  0 mm SolarRadiationWatts/m^2 W/m2 Conditions
00:03 0.6 °F /  -17.4 °C -1.5 °F /  -18.6 °C 1010.0 in /  34198.6 hPa Calm     86 % 0.0 in /  0 mm 0.0 W/m2 CLR
00:08 0.6 °F /  -17.4 °C -1.5 °F /  -18.6 °C 1010.0 in /  34198.6 hPa Calm     86 % 0.0 in /  0 mm 0.0 W/m2 CLR
00:13 0.6 °F /  -17.4 °C -1.5 °F /  -18.6 °C 1010.0 in /  34198.6 hPa Calm     86 % 0.0 in /  0 mm 0.0 W/m2 CLR
00:18 0.6 °F /  -17.4 °C -1.3 °F /  -18.5 °C 1010.0 in /  34198.6 hPa Calm     87 % 0.0 in /  0 mm 0.0 W/m2 CLR
00:23 0.6 °F /  -17.4 °C -1.3 °F /  -18.5 °C 1009.7 in /  34188.4 hPa Calm     87 % 0.0 in /  0 mm 0.0 W/m2 CLR
00:28 0.7 °F /  -17.4 °C -1.2 °F /  -18.4 °C 1009.7 in /  34188.4 hPa Calm     87 % 0.0 in /  0 mm 0.0 W/m2 CLR
00:33 0.7 °F /  -17.4 °C -1.2 °F /  -18.4 °C 1009.7 in /  34188.4 hPa Calm     87 % 0.0 in /  0 mm 0.0 W/m2 CLR
00:38 0.7 °F /  -17.4 °C -1.2 °F /  -18.4 °C 1009.7 in /  34188.4 hPa Calm     87 % 0.0 in /  0 mm 0.0 W/m2 CLR
00:43 0.7 °F /  -17.4 °C -1.2 °F /  -18.4 °C 1009.7 in /  34188.4 hPa Calm     87 % 0.0 in /  0 mm 0.0 W/m2 CLR
00:49 0.7 °F /  -17.4 °C -1.2 °F /  -18.4 °C 1009.7 in /  34188.4 hPa Calm     87 % 0.0 in /  0 mm 0.0 W/m2 CLR
00:54 0.7 °F /  -17.4 °C -1.1 °F /  -18.4 °C 1009.7 in /  34188.4 hPa Calm     88 % 0.0 in /  0 mm 0.0 W/m2 CLR
00:59 0.7 °F /  -17.4 °C -1.1 °F /  -18.4 °C 1009.7 in /  34188.4 hPa Calm     88 % 0.0 in /  0 mm 0.0 W/m2 CLR
01:04 0.7 °F /  -17.4 °C -1.1 °F /  -18.4 °C 1010.0 in /  34198.6 hPa Calm     88 % 0.0 in /  0 mm 0.0 W/m2 CLR
01:09 0.7 °F /  -17.4 °C -1.1 °F /  -18.4 °C 1009.7 in /  34188.4 hPa Calm     88 % 0.0 in /  0 mm 0.0 W/m2 CLR
01:14 0.7 °F /  -17.4 °C -1.1 °F /  -18.4 °C 1009.7 in /  34188.4 hPa Calm     88 % 0.0 in /  0 mm 0.0 W/m2 CLR
01:19 0.7 °F /  -17.4 °C -1.1 °F /  -18.4 °C 1009.7 in /  34188.4 hPa Calm     88 % 0.0 in /  0 mm 0.0 W/m2 CLR
01:24 0.7 °F /  -17.4 °C -1.1 °F /  -18.4 °C 1009.7 in /  34188.4 hPa Calm     88 % 0.0 in /  0 mm 0.0 W/m2 CLR
01:29 0.7 °F /  -17.4 °C -0.9 °F /  -18.3 °C 1009.4 in /  34178.3 hPa Calm     89 % 0.0 in /  0 mm 0.0 W/m2 CLR
01:34 0.7 °F /  -17.4 °C -0.9 °F /  -18.3 °C 1009.4 in /  34178.3 hPa Calm     89 % 0.0 in /  0 mm 0.0 W/m2 CLR
01:39 0.8 °F /  -17.3 °C -0.8 °F /  -18.2 °C 1009.4 in /  34178.3 hPa Calm     89 % 0.0 in /  0 mm 0.0 W/m2 CLR
01:44 0.7 °F /  -17.4 °C -0.9 °F /  -18.3 °C 1009.0 in /  34164.7 hPa Calm     89 % 0.0 in /  0 mm 0.0 W/m2 CLR
01:49 0.8 °F /  -17.3 °C -0.8 °F /  -18.2 °C 1009.0 in /  34164.7 hPa Calm     89 % 0.0 in /  0 mm 0.0 W/m2 CLR
01:54 0.7 °F /  -17.4 °C -0.9 °F /  -18.3 °C 1009.0 in /  34164.7 hPa Calm     89 % 0.0 in /  0 mm 0.0 W/m2 CLR
01:59 0.7 °F /  -17.4 °C -0.9 °F /  -18.3 °C 1008.7 in /  34154.6 hPa Calm     89 % 0.0 in /  0 mm 0.0 W/m2 CLR
02:04 0.7 °F /  -17.4 °C -0.7 °F /  -18.2 °C 1008.7 in /  34154.6 hPa Calm     90 % 0.0 in /  0 mm 0.0 W/m2 CLR
02:09 0.7 °F /  -17.4 °C -0.7 °F /  -18.2 °C 1008.7 in /  34154.6 hPa Calm     90 % 0.0 in /  0 mm 0.0 W/m2 CLR
02:14 0.7 °F /  -17.4 °C -0.7 °F /  -18.2 °C 1008.7 in /  34154.6 hPa Calm     90 % 0.0 in /  0 mm 0.0 W/m2 CLR
02:19 0.7 °F /  -17.4 °C -0.7 °F /  -18.2 °C 1008.7 in /  34154.6 hPa Calm     90 % 0.3 in /  7.62 mm 0.0 W/m2 RA
02:24 0.7 °F /  -17.4 °C -0.7 °F /  -18.2 °C 1008.4 in /  34144.4 hPa Calm     90 % 0.3 in /  7.62 mm 0.0 W/m2
02:29 0.7 °F /  -17.4 °C -0.7 °F /  -18.2 °C 1008.4 in /  34144.4 hPa Calm     90 % 0.3 in /  7.62 mm 0.0 W/m2 CLR
02:34 0.7 °F /  -17.4 °C -0.7 °F /  -18.2 °C 1008.4 in /  34144.4 hPa Calm     90 % 0.5 in /  12.7 mm 0.0 W/m2 RA
02:39 0.7 °F /  -17.4 °C -0.7 °F /  -18.2 °C 1008.0 in /  34130.9 hPa Calm     90 % 0.5 in /  12.7 mm 0.0 W/m2 CLR
02:44 0.7 °F /  -17.4 °C -0.7 °F /  -18.2 °C 1008.4 in /  34144.4 hPa Calm     90 % 0.5 in /  12.7 mm 0.0 W/m2 RA
02:49 0.8 °F /  -17.3 °C -0.7 °F /  -18.2 °C 1008.0 in /  34130.9 hPa Calm     90 % 0.5 in /  12.7 mm 0.0 W/m2 CLR
02:54 0.8 °F /  -17.3 °C -0.5 °F /  -18.1 °C 1008.0 in /  34130.9 hPa Calm     91 % 0.8 in /  20.32 mm 0.0 W/m2 RA
02:59 0.8 °F /  -17.3 °C -0.5 °F /  -18.1 °C 1007.7 in /  34120.7 hPa Calm     91 % 1.0 in /  25.4 mm 0.0 W/m2 RA
03:04 0.8 °F /  -17.3 °C -0.5 °F /  -18.1 °C 1007.7 in /  34120.7 hPa Calm     91 % 1.3 in /  33.02 mm 0.0 W/m2 RA
03:09 0.8 °F /  -17.3 °C -0.4 °F /  -18 °C 1007.7 in /  34120.7 hPa Calm     91 % 1.3 in /  33.02 mm 0.0 W/m2
03:14 0.8 °F /  -17.3 °C -0.4 °F /  -18 °C 1007.7 in /  34120.7 hPa Calm     91 % 1.5 in /  38.1 mm 0.0 W/m2 RA
03:19 0.8 °F /  -17.3 °C -0.4 °F /  -18 °C 1007.7 in /  34120.7 hPa Calm     91 % 1.5 in /  38.1 mm 0.0 W/m2 RA
03:24 0.8 °F /  -17.3 °C -0.4 °F /  -18 °C 1007.3 in /  34107.2 hPa Calm     91 % 1.5 in /  38.1 mm 0.0 W/m2 RA
03:29 0.9 °F /  -17.3 °C -0.4 °F /  -18 °C 1007.3 in /  34107.2 hPa Calm     91 % 1.8 in /  45.72 mm 0.0 W/m2 RA
03:34 0.9 °F /  -17.3 °C -0.4 °F /  -18 °C 1007.3 in /  34107.2 hPa Calm     91 % 2.0 in /  50.8 mm 0.0 W/m2 RA
03:39 0.9 °F /  -17.3 °C -0.3 °F /  -17.9 °C 1007.3 in /  34107.2 hPa Calm     91 % 2.0 in /  50.8 mm 0.0 W/m2
03:44 0.9 °F /  -17.3 °C -0.3 °F /  -17.9 °C 1007.0 in /  34097 hPa Calm     91 % 2.3 in /  58.42 mm 0.0 W/m2 RA
03:49 0.9 °F /  -17.3 °C -0.3 °F /  -17.9 °C 1007.0 in /  34097 hPa Calm     91 % 2.3 in /  58.42 mm 0.0 W/m2 RA
03:54 0.9 °F /  -17.3 °C -0.3 °F /  -17.9 °C 1006.7 in /  34086.9 hPa Calm     91 % 2.3 in /  58.42 mm 0.0 W/m2 RA
03:59 0.9 °F /  -17.3 °C -0.3 °F /  -17.9 °C 1006.7 in /  34086.9 hPa Calm     91 % 2.3 in /  58.42 mm 0.0 W/m2 RA
04:04 0.9 °F /  -17.3 °C -0.3 °F /  -17.9 °C 1006.7 in /  34086.9 hPa Calm     91 % 2.3 in /  58.42 mm 0.0 W/m2 RA
04:09 1.0 °F /  -17.2 °C -0.2 °F /  -17.9 °C 1007.0 in /  34097 hPa Calm     92 % 2.8 in /  71.12 mm 0.0 W/m2 RA
04:14 1.1 °F /  -17.2 °C -0.1 °F /  -17.8 °C 1007.0 in /  34097 hPa Calm     92 % 3.0 in /  76.2 mm 0.0 W/m2 RA
04:19 1.3 °F /  -17.1 °C 0.1 °F /  -17.7 °C 1007.0 in /  34097 hPa Calm     92 % 3.0 in /  76.2 mm 0.0 W/m2 RA
04:24 1.5 °F /  -16.9 °C 0.3 °F /  -17.6 °C 1007.0 in /  34097 hPa Calm     92 % 3.3 in /  83.82 mm 0.0 W/m2 RA
04:29 1.8 °F /  -16.8 °C 0.7 °F /  -17.4 °C 1007.0 in /  34097 hPa Calm     92 % 3.3 in /  83.82 mm 0.0 W/m2 RA
04:34 2.1 °F /  -16.6 °C 0.9 °F /  -17.3 °C 1006.7 in /  34086.9 hPa Calm     92 % 3.3 in /  83.82 mm 0.0 W/m2 RA
04:39 2.1 °F /  -16.6 °C 0.9 °F /  -17.3 °C 1006.7 in /  34086.9 hPa Calm     92 % 3.3 in /  83.82 mm 0.0 W/m2 RA
04:44 2.2 °F /  -16.6 °C 1.1 °F /  -17.2 °C 1006.7 in /  34086.9 hPa Calm     92 % 3.3 in /  83.82 mm 0.0 W/m2 RA
04:49 2.3 °F /  -16.5 °C 1.1 °F /  -17.2 °C 1006.7 in /  34086.9 hPa ESE 3.2 mph /  5.1 km/h 3.2 mph /  5.1 km/h 92 % 3.3 in /  83.82 mm 0.0 W/m2 RA
04:54 2.5 °F /  -16.4 °C 1.3 °F /  -17.1 °C 1006.7 in /  34086.9 hPa SE 7.4 mph /  11.9 km/h 7.4 mph /  11.9 km/h 92 % 3.6 in /  91.44 mm 0.0 W/m2 RA
04:59 2.6 °F /  -16.3 °C 1.4 °F /  -17 °C 1006.3 in /  34073.3 hPa SE 13.0 mph /  20.9 km/h 13.0 mph /  20.9 km/h 92 % 3.6 in /  91.44 mm 0.0 W/m2 RA
05:04 2.7 °F /  -16.3 °C 1.5 °F /  -16.9 °C 1006.0 in /  34063.2 hPa SSE 16.1 mph /  25.9 km/h 16.1 mph /  25.9 km/h 92 % 3.6 in /  91.44 mm 0.0 W/m2 RA
05:09 2.8 °F /  -16.2 °C 1.6 °F /  -16.9 °C 1006.0 in /  34063.2 hPa SE 13.0 mph /  20.9 km/h 13.0 mph /  20.9 km/h 92 % 3.6 in /  91.44 mm 0.0 W/m2 RA
05:14 2.9 °F /  -16.2 °C 1.6 °F /  -16.9 °C 1006.0 in /  34063.2 hPa SSE 14.8 mph /  23.8 km/h 14.8 mph /  23.8 km/h 91 % 3.3 in /  83.82 mm 0.0 W/m2
05:19 2.9 °F /  -16.2 °C 1.6 °F /  -16.9 °C 1005.6 in /  34049.6 hPa SSE 18.5 mph /  29.8 km/h 18.5 mph /  29.8 km/h 91 % 3.3 in /  83.82 mm 0.0 W/m2 RA
05:24 2.9 °F /  -16.2 °C 1.6 °F /  -16.9 °C 1005.3 in /  34039.5 hPa East 7.4 mph /  11.9 km/h 7.4 mph /  11.9 km/h 91 % 3.0 in /  76.2 mm 0.0 W/m2 RA
05:29 2.8 °F /  -16.2 °C 1.5 °F /  -16.9 °C 1005.3 in /  34039.5 hPa SSE 5.6 mph /  9 km/h 5.6 mph /  9 km/h 91 % 2.8 in /  71.12 mm 0.0 W/m2 CLR
05:34 2.8 °F /  -16.2 °C 1.4 °F /  -17 °C 1005.3 in /  34039.5 hPa SE 3.7 mph /  6 km/h 3.7 mph /  6 km/h 91 % 2.3 in /  58.42 mm 0.0 W/m2 CLR
05:39 2.8 °F /  -16.2 °C 1.4 °F /  -17 °C 1005.3 in /  34039.5 hPa ESE 5.6 mph /  9 km/h 5.6 mph /  9 km/h 91 % 2.3 in /  58.42 mm 0.0 W/m2 CLR
05:44 2.8 °F /  -16.2 °C 1.4 °F /  -17 °C 1005.0 in /  34029.3 hPa ESE 3.7 mph /  6 km/h   91 % 2.3 in /  58.42 mm 0.0 W/m2 RA
05:49 2.7 °F /  -16.3 °C 1.4 °F /  -17 °C 1005.0 in /  34029.3 hPa East 1.9 mph /  3.1 km/h 1.9 mph /  3.1 km/h 91 % 1.8 in /  45.72 mm 0.0 W/m2 CLR
05:54 2.8 °F /  -16.2 °C 1.4 °F /  -17 °C 1005.0 in /  34029.3 hPa ESE 5.6 mph /  9 km/h 5.6 mph /  9 km/h 91 % 1.5 in /  38.1 mm 0.0 W/m2 CLR
05:59 2.9 °F /  -16.2 °C 1.6 °F /  -16.9 °C 1004.6 in /  34015.8 hPa SE 5.6 mph /  9 km/h 5.6 mph /  9 km/h 91 % 1.3 in /  33.02 mm 0.0 W/m2 CLR
06:04 3.0 °F /  -16.1 °C 1.7 °F /  -16.8 °C 1004.6 in /  34015.8 hPa SE 8.0 mph /  12.9 km/h 8.0 mph /  12.9 km/h 91 % 1.0 in /  25.4 mm 0.0 W/m2 CLR
06:09 3.2 °F /  -16 °C 1.8 °F /  -16.8 °C 1004.6 in /  34015.8 hPa Calm     91 % 0.5 in /  12.7 mm 0.0 W/m2 CLR
06:14 3.1 °F /  -16.1 °C 1.8 °F /  -16.8 °C 1004.3 in /  34005.6 hPa ESE 3.2 mph /  5.1 km/h 3.2 mph /  5.1 km/h 91 % 0.8 in /  20.32 mm 0.0 W/m2 RA
06:20 3.1 °F /  -16.1 °C 1.8 °F /  -16.8 °C 1004.3 in /  34005.6 hPa Calm     91 % 0.5 in /  12.7 mm 0.0 W/m2
06:25 3.1 °F /  -16.1 °C 1.8 °F /  -16.8 °C 1004.3 in /  34005.6 hPa ESE 6.4 mph /  10.3 km/h 6.4 mph /  10.3 km/h 91 % 0.5 in /  12.7 mm 0.0 W/m2 CLR
06:30 3.2 °F /  -16 °C 1.8 °F /  -16.8 °C 1004.3 in /  34005.6 hPa Calm   1.3 mph /  2.1 km/h 91 % 0.5 in /  12.7 mm 0.0 W/m2 CLR
06:35 3.2 °F /  -16 °C 1.9 °F /  -16.7 °C 1004.6 in /  34015.8 hPa East 1.9 mph /  3.1 km/h   91 % 0.5 in /  12.7 mm 0.0 W/m2 CLR
06:40 3.3 °F /  -15.9 °C 1.9 °F /  -16.7 °C 1004.3 in /  34005.6 hPa Calm     91 % 0.5 in /  12.7 mm 0.0 W/m2 CLR
06:45 3.3 °F /  -15.9 °C 1.9 °F /  -16.7 °C 1004.6 in /  34015.8 hPa Calm     91 % 0.3 in /  7.62 mm 0.0 W/m2 CLR
06:50 3.3 °F /  -15.9 °C 1.9 °F /  -16.7 °C 1004.3 in /  34005.6 hPa Calm     91 % 0.3 in /  7.62 mm 0.0 W/m2 CLR
06:55 3.3 °F /  -15.9 °C 2.0 °F /  -16.7 °C 1004.3 in /  34005.6 hPa Calm     91 % 0.3 in /  7.62 mm 0.0 W/m2 CLR
07:00 3.3 °F /  -15.9 °C 2.0 °F /  -16.7 °C 1004.3 in /  34005.6 hPa Calm     91 % 0.3 in /  7.62 mm 0.0 W/m2 CLR
07:05 3.3 °F /  -15.9 °C 2.0 °F /  -16.7 °C 1003.9 in /  33992.1 hPa Calm     91 % 0.3 in /  7.62 mm 0.0 W/m2 CLR
07:10 3.4 °F /  -15.9 °C 2.1 °F /  -16.6 °C 1003.9 in /  33992.1 hPa ESE 3.7 mph /  6 km/h 3.7 mph /  6 km/h 91 % 0.3 in /  7.62 mm 0.0 W/m2 CLR
07:15 3.5 °F /  -15.8 °C 2.2 °F /  -16.6 °C 1003.6 in /  33981.9 hPa ESE 9.7 mph /  15.6 km/h 9.7 mph /  15.6 km/h 91 % 0.0 in /  0 mm 0.0 W/m2 CLR
07:20 3.6 °F /  -15.8 °C 2.3 °F /  -16.5 °C 1003.6 in /  33981.9 hPa SE 5.6 mph /  9 km/h 5.6 mph /  9 km/h 91 % 0.0 in /  0 mm 0.0 W/m2 CLR
07:25 3.8 °F /  -15.7 °C 2.4 °F /  -16.4 °C 1003.6 in /  33981.9 hPa SE 5.6 mph /  9 km/h 5.6 mph /  9 km/h 91 % 0.0 in /  0 mm 0.0 W/m2 OVC
07:30 3.9 °F /  -15.6 °C 2.4 °F /  -16.4 °C 1003.6 in /  33981.9 hPa East 1.9 mph /  3.1 km/h   90 % 0.0 in /  0 mm 0.0 W/m2 OVC
07:35 3.9 °F /  -15.6 °C 2.4 °F /  -16.4 °C 1003.6 in /  33981.9 hPa SE 5.6 mph /  9 km/h 5.6 mph /  9 km/h 90 % 0.0 in /  0 mm 0.0 W/m2 OVC
07:40 3.9 °F /  -15.6 °C 2.4 °F /  -16.4 °C 1003.6 in /  33981.9 hPa SE 1.9 mph /  3.1 km/h 1.9 mph /  3.1 km/h 90 % 0.0 in /  0 mm 0.0 W/m2 OVC
07:45 3.9 °F /  -15.6 °C 2.4 °F /  -16.4 °C 1003.3 in /  33971.7 hPa Calm     90 % 0.0 in /  0 mm 0.0 W/m2 OVC
07:50 4.1 °F /  -15.5 °C 2.4 °F /  -16.4 °C 1003.3 in /  33971.7 hPa ESE 1.9 mph /  3.1 km/h 1.9 mph /  3.1 km/h 89 % 0.0 in /  0 mm 0.0 W/m2 OVC
07:55 4.1 °F /  -15.5 °C 2.4 °F /  -16.4 °C 1003.3 in /  33971.7 hPa ESE 11.1 mph /  17.9 km/h 11.1 mph /  17.9 km/h 89 % 0.0 in /  0 mm 5.0 W/m2 OVC
08:00 4.0 °F /  -15.6 °C 2.3 °F /  -16.5 °C 1003.3 in /  33971.7 hPa ESE 14.8 mph /  23.8 km/h 14.8 mph /  23.8 km/h 89 % 0.0 in /  0 mm 5.0 W/m2 OVC
08:05 3.9 °F /  -15.6 °C 2.3 °F /  -16.5 °C 1003.3 in /  33971.7 hPa ESE 1.9 mph /  3.1 km/h   89 % 0.0 in /  0 mm 5.0 W/m2 OVC
08:10 4.0 °F /  -15.6 °C 2.3 °F /  -16.5 °C 1003.3 in /  33971.7 hPa East 11.1 mph /  17.9 km/h 11.1 mph /  17.9 km/h 89 % 0.0 in /  0 mm 9.0 W/m2 BKN
08:15 4.0 °F /  -15.6 °C 2.3 °F /  -16.5 °C 1003.3 in /  33971.7 hPa SE 6.4 mph /  10.3 km/h 6.4 mph /  10.3 km/h 89 % 0.0 in /  0 mm 12.0 W/m2 BKN
08:20 4.1 °F /  -15.5 °C 2.4 °F /  -16.4 °C 1003.3 in /  33971.7 hPa ESE 6.4 mph /  10.3 km/h 6.4 mph /  10.3 km/h 89 % 0.0 in /  0 mm 18.0 W/m2 BKN
08:25 4.2 °F /  -15.4 °C 2.5 °F /  -16.4 °C 1003.3 in /  33971.7 hPa ESE 3.7 mph /  6 km/h 3.7 mph /  6 km/h 89 % 0.0 in /  0 mm 19.0 W/m2 BKN
08:30 4.2 °F /  -15.4 °C 2.6 °F /  -16.3 °C 1003.3 in /  33971.7 hPa Calm     89 % 0.0 in /  0 mm 23.0 W/m2 BKN
08:35 4.3 °F /  -15.4 °C 2.6 °F /  -16.3 °C 1003.3 in /  33971.7 hPa ESE 13.0 mph /  20.9 km/h 13.0 mph /  20.9 km/h 89 % 0.0 in /  0 mm 23.0 W/m2 BKN
08:40 4.3 °F /  -15.4 °C 2.7 °F /  -16.3 °C 1003.3 in /  33971.7 hPa ESE 5.6 mph /  9 km/h 5.6 mph /  9 km/h 89 % 0.0 in /  0 mm 19.0 W/m2 BKN
08:45 4.4 °F /  -15.3 °C 2.6 °F /  -16.3 °C 1003.3 in /  33971.7 hPa ESE 5.6 mph /  9 km/h 5.6 mph /  9 km/h 88 % 0.0 in /  0 mm 23.0 W/m2 BKN
08:50 4.6 °F /  -15.2 °C 2.8 °F /  -16.2 °C 1003.3 in /  33971.7 hPa SE 5.6 mph /  9 km/h 5.6 mph /  9 km/h 88 % 0.3 in /  7.62 mm 26.0 W/m2 RA
08:55 4.7 °F /  -15.2 °C 2.8 °F /  -16.2 °C 1002.9 in /  33958.2 hPa SE 3.7 mph /  6 km/h 3.7 mph /  6 km/h 88 % 0.3 in /  7.62 mm 32.0 W/m2 BKN
09:00 4.7 °F /  -15.2 °C 2.9 °F /  -16.2 °C 1002.9 in /  33958.2 hPa Calm     88 % 0.3 in /  7.62 mm 39.0 W/m2 BKN
09:05 4.7 °F /  -15.2 °C 2.9 °F /  -16.2 °C 1002.9 in /  33958.2 hPa East 1.9 mph /  3.1 km/h 1.9 mph /  3.1 km/h 88 % 0.3 in /  7.62 mm 39.0 W/m2 BKN
09:10 4.8 °F /  -15.1 °C 2.9 °F /  -16.2 °C 1002.9 in /  33958.2 hPa SE 3.7 mph /  6 km/h 3.7 mph /  6 km/h 88 % 0.3 in /  7.62 mm 37.0 W/m2 BKN
09:15 4.8 °F /  -15.1 °C 3.0 °F /  -16.1 °C 1002.9 in /  33958.2 hPa ESE 3.7 mph /  6 km/h 3.7 mph /  6 km/h 88 % 0.3 in /  7.62 mm 37.0 W/m2 BKN
09:20 4.8 °F /  -15.1 °C 3.0 °F /  -16.1 °C 1002.9 in /  33958.2 hPa SE 8.0 mph /  12.9 km/h 8.0 mph /  12.9 km/h 88 % 0.3 in /  7.62 mm 40.0 W/m2 BKN
09:25 4.9 °F /  -15.1 °C 3.1 °F /  -16.1 °C 1002.6 in /  33948 hPa East 5.6 mph /  9 km/h 5.6 mph /  9 km/h 88 % 0.5 in /  12.7 mm 46.0 W/m2 RA
09:30 4.9 °F /  -15.1 °C 3.1 °F /  -16.1 °C 1002.6 in /  33948 hPa ESE 7.4 mph /  11.9 km/h 7.4 mph /  11.9 km/h 88 % 0.5 in /  12.7 mm 54.0 W/m2 SCT
09:35 4.9 °F /  -15.1 °C 3.1 °F /  -16.1 °C 1002.9 in /  33958.2 hPa ESE 9.3 mph /  15 km/h 9.3 mph /  15 km/h 88 % 0.5 in /  12.7 mm 72.0 W/m2 SCT
09:40 4.9 °F /  -15.1 °C 3.2 °F /  -16 °C 1002.6 in /  33948 hPa SE 13.0 mph /  20.9 km/h 13.0 mph /  20.9 km/h 89 % 0.5 in /  12.7 mm 97.0 W/m2 FEW
09:45 5.1 °F /  -14.9 °C 3.4 °F /  -15.9 °C 1002.6 in /  33948 hPa SSE 7.4 mph /  11.9 km/h 7.4 mph /  11.9 km/h 89 % 0.5 in /  12.7 mm 107.0 W/m2 CLR
09:50 5.2 °F /  -14.9 °C 3.5 °F /  -15.8 °C 1002.6 in /  33948 hPa SE 7.4 mph /  11.9 km/h 7.4 mph /  11.9 km/h 89 % 0.3 in /  7.62 mm 109.0 W/m2 CLR
09:55 5.3 °F /  -14.8 °C 3.6 °F /  -15.8 °C 1002.6 in /  33948 hPa SE 5.6 mph /  9 km/h 5.6 mph /  9 km/h 89 % 0.3 in /  7.62 mm 113.0 W/m2 CLR
10:00 5.3 °F /  -14.8 °C 3.7 °F /  -15.7 °C 1002.6 in /  33948 hPa SSE 8.0 mph /  12.9 km/h 8.0 mph /  12.9 km/h 89 % 0.3 in /  7.62 mm 125.0 W/m2 CLR
10:05 5.4 °F /  -14.8 °C 3.8 °F /  -15.7 °C 1002.3 in /  33937.9 hPa SE 8.0 mph /  12.9 km/h 8.0 mph /  12.9 km/h 89 % 0.3 in /  7.62 mm 139.0 W/m2 CLR
10:10 5.6 °F /  -14.7 °C 3.7 °F /  -15.7 °C 1002.3 in /  33937.9 hPa SE 7.4 mph /  11.9 km/h 7.4 mph /  11.9 km/h 88 % 0.3 in /  7.62 mm 109.0 W/m2 CLR
10:15 5.7 °F /  -14.6 °C 3.8 °F /  -15.7 °C 1002.3 in /  33937.9 hPa SE 7.4 mph /  11.9 km/h 7.4 mph /  11.9 km/h 88 % 0.3 in /  7.62 mm 128.0 W/m2 CLR
10:20 5.8 °F /  -14.6 °C 3.9 °F /  -15.6 °C 1002.3 in /  33937.9 hPa East 16.1 mph /  25.9 km/h 16.1 mph /  25.9 km/h 88 % 0.3 in /  7.62 mm 144.0 W/m2 CLR
10:25 5.9 °F /  -14.5 °C 4.1 °F /  -15.5 °C 1002.3 in /  33937.9 hPa East 13.0 mph /  20.9 km/h 13.0 mph /  20.9 km/h 88 % 0.0 in /  0 mm 116.0 W/m2 CLR
10:30 5.9 °F /  -14.5 °C 4.1 °F /  -15.5 °C 1002.3 in /  33937.9 hPa ENE 13.0 mph /  20.9 km/h 13.0 mph /  20.9 km/h 88 % 0.0 in /  0 mm 144.0 W/m2 CLR
10:35 5.9 °F /  -14.5 °C 4.3 °F /  -15.4 °C 1002.3 in /  33937.9 hPa East 14.5 mph /  23.3 km/h 14.5 mph /  23.3 km/h 89 % 0.0 in /  0 mm 214.0 W/m2 CLR
10:40 6.1 °F /  -14.4 °C 4.4 °F /  -15.3 °C 1001.9 in /  33924.3 hPa ESE 16.7 mph /  26.9 km/h 16.7 mph /  26.9 km/h 89 % 0.0 in /  0 mm 162.0 W/m2 CLR
10:45 6.5 °F /  -14.2 °C 4.7 °F /  -15.2 °C 1001.9 in /  33924.3 hPa SE 18.5 mph /  29.8 km/h 18.5 mph /  29.8 km/h 88 % 0.0 in /  0 mm 274.0 W/m2 CLR
10:50 6.9 °F /  -13.9 °C 4.9 °F /  -15.1 °C 1001.9 in /  33924.3 hPa SE 14.8 mph /  23.8 km/h 14.8 mph /  23.8 km/h 87 % 0.0 in /  0 mm 355.0 W/m2 CLR
10:55 7.2 °F /  -13.8 °C 5.1 °F /  -14.9 °C 1001.9 in /  33924.3 hPa ESE 17.7 mph /  28.5 km/h 17.7 mph /  28.5 km/h 86 % 0.0 in /  0 mm 285.0 W/m2 CLR
11:00 7.7 °F /  -13.5 °C 5.5 °F /  -14.7 °C 1001.9 in /  33924.3 hPa South 13.0 mph /  20.9 km/h 13.0 mph /  20.9 km/h 86 % 0.0 in /  0 mm 420.0 W/m2 CLR
11:05 7.8 °F /  -13.4 °C 5.2 °F /  -14.9 °C 1001.6 in /  33914.2 hPa SSE 27.8 mph /  44.7 km/h 27.8 mph /  44.7 km/h 84 % 0.0 in /  0 mm 374.0 W/m2 CLR
11:10 8.0 °F /  -13.3 °C 5.4 °F /  -14.8 °C 1001.9 in /  33924.3 hPa SE 24.1 mph /  38.8 km/h 24.1 mph /  38.8 km/h 84 % 0.0 in /  0 mm 499.0 W/m2 CLR
11:15 8.2 °F /  -13.2 °C 5.4 °F /  -14.8 °C 1001.6 in /  33914.2 hPa SE 20.4 mph /  32.8 km/h 20.4 mph /  32.8 km/h 83 % 0.0 in /  0 mm 329.0 W/m2 CLR
11:20 8.3 °F /  -13.2 °C 5.6 °F /  -14.7 °C 1001.6 in /  33914.2 hPa SSE 18.5 mph /  29.8 km/h 18.5 mph /  29.8 km/h 83 % 0.0 in /  0 mm 369.0 W/m2 CLR
11:25 8.6 °F /  -13 °C 5.8 °F /  -14.6 °C 1001.6 in /  33914.2 hPa SSE 13.0 mph /  20.9 km/h 13.0 mph /  20.9 km/h 83 % 0.0 in /  0 mm 394.0 W/m2 CLR
11:30 8.9 °F /  -12.8 °C 6.0 °F /  -14.4 °C 1001.6 in /  33914.2 hPa SSE 18.5 mph /  29.8 km/h 18.5 mph /  29.8 km/h 82 % 0.0 in /  0 mm 378.0 W/m2 CLR
11:35 8.9 °F /  -12.8 °C 5.8 °F /  -14.6 °C 1001.6 in /  33914.2 hPa SE 22.5 mph /  36.2 km/h 22.5 mph /  36.2 km/h 81 % 0.0 in /  0 mm 315.0 W/m2 CLR
11:40 8.8 °F /  -12.9 °C 5.9 °F /  -14.5 °C 1001.6 in /  33914.2 hPa ESE 13.0 mph /  20.9 km/h 13.0 mph /  20.9 km/h 82 % 0.0 in /  0 mm 288.0 W/m2 CLR
11:45 8.8 °F /  -12.9 °C 5.9 °F /  -14.5 °C 1001.6 in /  33914.2 hPa South 16.7 mph /  26.9 km/h 16.7 mph /  26.9 km/h 82 % 0.0 in /  0 mm 278.0 W/m2 CLR
11:50 8.9 °F /  -12.8 °C 6.1 °F /  -14.4 °C 1001.6 in /  33914.2 hPa SSE 18.5 mph /  29.8 km/h 18.5 mph /  29.8 km/h 82 % 0.0 in /  0 mm 229.0 W/m2 CLR
11:55 9.1 °F /  -12.7 °C 5.9 °F /  -14.5 °C 1001.6 in /  33914.2 hPa SSE 22.2 mph /  35.7 km/h 22.2 mph /  35.7 km/h 81 % 0.0 in /  0 mm 239.0 W/m2 CLR
12:00 9.2 °F /  -12.7 °C 5.9 °F /  -14.5 °C 1001.6 in /  33914.2 hPa SSE 18.5 mph /  29.8 km/h 18.5 mph /  29.8 km/h 80 % 0.0 in /  0 mm 237.0 W/m2 CLR
12:05 9.3 °F /  -12.6 °C 6.0 °F /  -14.4 °C 1001.6 in /  33914.2 hPa SE 14.8 mph /  23.8 km/h 14.8 mph /  23.8 km/h 80 % 0.0 in /  0 mm 193.0 W/m2 CLR
12:10 9.1 °F /  -12.7 °C 5.8 °F /  -14.6 °C 1001.6 in /  33914.2 hPa SE 11.1 mph /  17.9 km/h 11.1 mph /  17.9 km/h 80 % 0.0 in /  0 mm 160.0 W/m2 CLR
12:15 8.9 °F /  -12.8 °C 5.8 °F /  -14.6 °C 1001.2 in /  33900.6 hPa SSE 16.7 mph /  26.9 km/h 16.7 mph /  26.9 km/h 81 % 0.0 in /  0 mm 220.0 W/m2 CLR
12:20 8.8 °F /  -12.9 °C 5.7 °F /  -14.6 °C 1001.2 in /  33900.6 hPa SSE 20.4 mph /  32.8 km/h 20.4 mph /  32.8 km/h 81 % 0.0 in /  0 mm 227.0 W/m2 CLR
12:25 8.8 °F /  -12.9 °C 5.7 °F /  -14.6 °C 1001.2 in /  33900.6 hPa SE 18.5 mph /  29.8 km/h 18.5 mph /  29.8 km/h 81 % 0.0 in /  0 mm 213.0 W/m2 CLR
12:30 9.0 °F /  -12.8 °C 5.9 °F /  -14.5 °C 1001.2 in /  33900.6 hPa SE 11.1 mph /  17.9 km/h 11.1 mph /  17.9 km/h 81 % 0.0 in /  0 mm 230.0 W/m2 CLR
12:35 9.0 °F /  -12.8 °C 5.9 °F /  -14.5 °C 1001.2 in /  33900.6 hPa SE 18.5 mph /  29.8 km/h 18.5 mph /  29.8 km/h 81 % 0.0 in /  0 mm 248.0 W/m2 CLR
12:40 9.1 °F /  -12.7 °C 5.9 °F /  -14.5 °C 1001.2 in /  33900.6 hPa SE 13.0 mph /  20.9 km/h 13.0 mph /  20.9 km/h 81 % 0.0 in /  0 mm 253.0 W/m2 CLR
12:45 9.1 °F /  -12.7 °C 5.8 °F /  -14.6 °C 1000.9 in /  33890.5 hPa SSE 22.2 mph /  35.7 km/h 22.2 mph /  35.7 km/h 80 % 0.0 in /  0 mm 260.0 W/m2 CLR
12:50 9.3 °F /  -12.6 °C 6.0 °F /  -14.4 °C 1000.9 in /  33890.5 hPa SSE 20.4 mph /  32.8 km/h 20.4 mph /  32.8 km/h 80 % 0.0 in /  0 mm 285.0 W/m2 CLR
12:55 9.4 °F /  -12.6 °C 6.1 °F /  -14.4 °C 1000.6 in /  33880.3 hPa SE 18.5 mph /  29.8 km/h 18.5 mph /  29.8 km/h 80 % 0.0 in /  0 mm 258.0 W/m2 CLR
13:00 9.6 °F /  -12.4 °C 6.3 °F /  -14.3 °C 1000.6 in /  33880.3 hPa SSE 14.5 mph /  23.3 km/h 14.5 mph /  23.3 km/h 80 % 0.0 in /  0 mm 276.0 W/m2 CLR
13:05 9.7 °F /  -12.4 °C 6.3 °F /  -14.3 °C 1000.6 in /  33880.3 hPa SE 22.2 mph /  35.7 km/h 22.2 mph /  35.7 km/h 79 % 0.0 in /  0 mm 306.0 W/m2 CLR
13:11 9.8 °F /  -12.3 °C 6.3 °F /  -14.3 °C 1000.6 in /  33880.3 hPa SSE 14.8 mph /  23.8 km/h 14.8 mph /  23.8 km/h 79 % 0.0 in /  0 mm 311.0 W/m2 CLR
13:16 9.9 °F /  -12.3 °C 6.4 °F /  -14.2 °C 1000.6 in /  33880.3 hPa SSE 19.3 mph /  31.1 km/h 19.3 mph /  31.1 km/h 79 % 0.0 in /  0 mm 278.0 W/m2 CLR
13:21 9.9 °F /  -12.3 °C 6.4 °F /  -14.2 °C 1000.6 in /  33880.3 hPa SE 16.7 mph /  26.9 km/h 16.7 mph /  26.9 km/h 79 % 0.0 in /  0 mm 308.0 W/m2 CLR
13:26 10.0 °F /  -12.2 °C 6.5 °F /  -14.2 °C 1000.2 in /  33866.8 hPa SSE 25.9 mph /  41.7 km/h 25.9 mph /  41.7 km/h 79 % 0.0 in /  0 mm 265.0 W/m2 CLR
13:31 10.1 °F /  -12.2 °C 6.8 °F /  -14 °C 1000.2 in /  33866.8 hPa SE 20.4 mph /  32.8 km/h 20.4 mph /  32.8 km/h 80 % 0.0 in /  0 mm 264.0 W/m2 CLR
13:36 10.1 °F /  -12.2 °C 6.6 °F /  -14.1 °C 1000.2 in /  33866.8 hPa SE 16.7 mph /  26.9 km/h 16.7 mph /  26.9 km/h 79 % 0.0 in /  0 mm 255.0 W/m2 CLR
13:41 10.1 °F /  -12.2 °C 6.6 °F /  -14.1 °C 999.9 in /  33856.6 hPa SE 18.5 mph /  29.8 km/h 18.5 mph /  29.8 km/h 79 % 0.0 in /  0 mm 234.0 W/m2 CLR
13:46 10.1 °F /  -12.2 °C 6.8 °F /  -14 °C 1000.2 in /  33866.8 hPa SE 13.0 mph /  20.9 km/h 13.0 mph /  20.9 km/h 80 % 0.0 in /  0 mm 265.0 W/m2 CLR
13:51 10.2 °F /  -12.1 °C 6.9 °F /  -13.9 °C 999.9 in /  33856.6 hPa SE 9.3 mph /  15 km/h 9.3 mph /  15 km/h 80 % 0.0 in /  0 mm 243.0 W/m2 CLR
13:56 10.3 °F /  -12.1 °C 7.0 °F /  -13.9 °C 999.9 in /  33856.6 hPa Calm     80 % 0.0 in /  0 mm 204.0 W/m2 CLR
14:01 10.6 °F /  -11.9 °C 7.1 °F /  -13.8 °C 999.5 in /  33843.1 hPa SE 6.4 mph /  10.3 km/h 6.4 mph /  10.3 km/h 79 % 0.0 in /  0 mm 155.0 W/m2 CLR
14:06 11.0 °F /  -11.7 °C 7.1 °F /  -13.8 °C 999.5 in /  33843.1 hPa SSE 11.1 mph /  17.9 km/h 11.1 mph /  17.9 km/h 77 % 0.0 in /  0 mm 134.0 W/m2 CLR
14:11 11.2 °F /  -11.6 °C 7.1 °F /  -13.8 °C 999.5 in /  33843.1 hPa SSE 7.4 mph /  11.9 km/h 7.4 mph /  11.9 km/h 76 % 0.0 in /  0 mm 141.0 W/m2 CLR
14:16 11.1 °F /  -11.6 °C 7.1 °F /  -13.8 °C 999.5 in /  33843.1 hPa SSE 6.4 mph /  10.3 km/h 6.4 mph /  10.3 km/h 76 % 0.0 in /  0 mm 209.0 W/m2 CLR
14:21 10.9 °F /  -11.7 °C 7.1 °F /  -13.8 °C 999.5 in /  33843.1 hPa SE 5.6 mph /  9 km/h 5.6 mph /  9 km/h 77 % 0.0 in /  0 mm 223.0 W/m2 CLR
14:26 10.6 °F /  -11.9 °C 6.9 °F /  -13.9 °C 999.5 in /  33843.1 hPa SSE 11.1 mph /  17.9 km/h 11.1 mph /  17.9 km/h 78 % 0.0 in /  0 mm 267.0 W/m2 CLR
14:31 10.1 °F /  -12.2 °C 6.6 °F /  -14.1 °C 999.5 in /  33843.1 hPa SSE 14.8 mph /  23.8 km/h 14.8 mph /  23.8 km/h 79 % 0.0 in /  0 mm 274.0 W/m2 CLR
14:36 10.1 °F /  -12.2 °C 6.8 °F /  -14 °C 999.5 in /  33843.1 hPa SSE 14.8 mph /  23.8 km/h 14.8 mph /  23.8 km/h 80 % 0.0 in /  0 mm 265.0 W/m2 CLR
14:41 10.1 °F /  -12.2 °C 6.8 °F /  -14 °C 999.5 in /  33843.1 hPa SSE 11.1 mph /  17.9 km/h 11.1 mph /  17.9 km/h 80 % 0.0 in /  0 mm 255.0 W/m2 CLR
14:46 10.2 °F /  -12.1 °C 6.7 °F /  -14.1 °C 999.2 in /  33832.9 hPa South 13.0 mph /  20.9 km/h 13.0 mph /  20.9 km/h 79 % 0.0 in /  0 mm 236.0 W/m2 CLR
14:51 10.1 °F /  -12.2 °C 6.6 °F /  -14.1 °C 999.2 in /  33832.9 hPa SE 18.5 mph /  29.8 km/h 18.5 mph /  29.8 km/h 79 % 0.0 in /  0 mm 218.0 W/m2 CLR
14:56 9.6 °F /  -12.4 °C 6.3 °F /  -14.3 °C 999.2 in /  33832.9 hPa SE 14.8 mph /  23.8 km/h 14.8 mph /  23.8 km/h 80 % 0.0 in /  0 mm 204.0 W/m2 CLR
15:01 9.3 °F /  -12.6 °C 6.4 °F /  -14.2 °C 999.2 in /  33832.9 hPa SSE 14.8 mph /  23.8 km/h 14.8 mph /  23.8 km/h 82 % 0.0 in /  0 mm 195.0 W/m2 CLR
15:06 9.3 °F /  -12.6 °C 6.4 °F /  -14.2 °C 999.2 in /  33832.9 hPa South 16.7 mph /  26.9 km/h 16.7 mph /  26.9 km/h 82 % 0.0 in /  0 mm 220.0 W/m2 CLR
15:11 9.3 °F /  -12.6 °C 6.4 °F /  -14.2 °C 999.2 in /  33832.9 hPa South 9.3 mph /  15 km/h 9.3 mph /  15 km/h 82 % 0.0 in /  0 mm 193.0 W/m2 CLR
15:16 9.3 °F /  -12.6 °C 6.6 °F /  -14.1 °C 999.2 in /  33832.9 hPa South 13.0 mph /  20.9 km/h 13.0 mph /  20.9 km/h 83 % 0.0 in /  0 mm 179.0 W/m2 CLR
15:21 9.4 °F /  -12.6 °C 6.7 °F /  -14.1 °C 999.2 in /  33832.9 hPa Calm     83 % 0.0 in /  0 mm 197.0 W/m2 CLR
15:26 9.3 °F /  -12.6 °C 6.6 °F /  -14.1 °C 999.2 in /  33832.9 hPa SE 6.4 mph /  10.3 km/h 6.4 mph /  10.3 km/h 83 % 0.0 in /  0 mm 216.0 W/m2 CLR
15:31 9.1 °F /  -12.7 °C 6.3 °F /  -14.3 °C 999.2 in /  33832.9 hPa ESE 5.6 mph /  9 km/h 5.6 mph /  9 km/h 83 % 0.0 in /  0 mm 211.0 W/m2 CLR
15:36 9.1 °F /  -12.7 °C 6.5 °F /  -14.2 °C 999.2 in /  33832.9 hPa Calm     84 % 0.0 in /  0 mm 195.0 W/m2 CLR
15:41 9.1 °F /  -12.7 °C 6.6 °F /  -14.1 °C 998.9 in /  33822.8 hPa Calm     84 % 0.0 in /  0 mm 213.0 W/m2 CLR
15:46 9.3 °F /  -12.6 °C 6.7 °F /  -14.1 °C 998.9 in /  33822.8 hPa Calm     84 % 0.0 in /  0 mm 214.0 W/m2 CLR
15:51 9.4 °F /  -12.6 °C 6.7 °F /  -14.1 °C 998.9 in /  33822.8 hPa Calm     83 % 0.0 in /  0 mm 236.0 W/m2 CLR
15:56 9.5 °F /  -12.5 °C 6.8 °F /  -14 °C 998.9 in /  33822.8 hPa Calm     83 % 0.0 in /  0 mm 230.0 W/m2 CLR
16:01 9.6 °F /  -12.4 °C 7.0 °F /  -13.9 °C 998.5 in /  33809.2 hPa Calm     84 % 0.0 in /  0 mm 308.0 W/m2 CLR
16:06 9.6 °F /  -12.4 °C 7.2 °F /  -13.8 °C 998.5 in /  33809.2 hPa Calm     85 % 0.0 in /  0 mm 327.0 W/m2 CLR
16:11 9.8 °F /  -12.3 °C 7.6 °F /  -13.6 °C 998.5 in /  33809.2 hPa Calm     86 % 0.0 in /  0 mm 276.0 W/m2 CLR
16:16 9.6 °F /  -12.4 °C 6.9 °F /  -13.9 °C 998.5 in /  33809.2 hPa West 8.0 mph /  12.9 km/h 8.0 mph /  12.9 km/h 83 % 0.0 in /  0 mm 350.0 W/m2 CLR
16:21 9.3 °F /  -12.6 °C 6.8 °F /  -14 °C 998.5 in /  33809.2 hPa Calm     84 % 0.0 in /  0 mm 376.0 W/m2 CLR
16:26 9.5 °F /  -12.5 °C 7.1 °F /  -13.8 °C 998.5 in /  33809.2 hPa Calm     85 % 0.0 in /  0 mm 360.0 W/m2 CLR
16:31 9.9 °F /  -12.3 °C 7.6 °F /  -13.6 °C 998.5 in /  33809.2 hPa Calm     85 % 0.0 in /  0 mm 434.0 W/m2 CLR
16:36 10.3 °F /  -12.1 °C 7.9 °F /  -13.4 °C 998.9 in /  33822.8 hPa Calm     85 % 0.0 in /  0 mm 265.0 W/m2 CLR
16:41 10.6 °F /  -11.9 °C 7.7 °F /  -13.5 °C 998.9 in /  33822.8 hPa Calm     82 % 0.0 in /  0 mm 193.0 W/m2 CLR
16:46 10.6 °F /  -11.9 °C 7.5 °F /  -13.6 °C 998.5 in /  33809.2 hPa Calm     81 % 0.0 in /  0 mm 158.0 W/m2 CLR
16:51 10.6 °F /  -11.9 °C 7.5 °F /  -13.6 °C 998.5 in /  33809.2 hPa Calm     81 % 0.0 in /  0 mm 142.0 W/m2 CLR
16:56 10.5 °F /  -11.9 °C 7.4 °F /  -13.7 °C 998.2 in /  33799.1 hPa Calm     81 % 0.0 in /  0 mm 141.0 W/m2 CLR
17:01 10.3 °F /  -12.1 °C 7.2 °F /  -13.8 °C 998.5 in /  33809.2 hPa Calm   0.2 mph /  0.3 km/h 81 % 0.0 in /  0 mm 149.0 W/m2 CLR
17:06 10.1 °F /  -12.2 °C 7.0 °F /  -13.9 °C 998.5 in /  33809.2 hPa Calm     81 % 0.0 in /  0 mm 142.0 W/m2 CLR
17:11 9.9 °F /  -12.3 °C 6.8 °F /  -14 °C 998.5 in /  33809.2 hPa Calm     81 % 0.0 in /  0 mm 132.0 W/m2 CLR
17:16 9.7 °F /  -12.4 °C 6.7 °F /  -14.1 °C 998.5 in /  33809.2 hPa East 5.6 mph /  9 km/h 5.6 mph /  9 km/h 82 % 0.0 in /  0 mm 128.0 W/m2 CLR
17:21 9.4 °F /  -12.6 °C 6.7 °F /  -14.1 °C 998.5 in /  33809.2 hPa Calm     83 % 0.0 in /  0 mm 128.0 W/m2 CLR
17:26 9.2 °F /  -12.7 °C 6.6 °F /  -14.1 °C 998.2 in /  33799.1 hPa Calm     84 % 0.0 in /  0 mm 116.0 W/m2 CLR
17:31 9.1 °F /  -12.7 °C 6.7 °F /  -14.1 °C 998.2 in /  33799.1 hPa Calm     85 % 0.0 in /  0 mm 97.0 W/m2 CLR
17:36 9.1 °F /  -12.7 °C 6.7 °F /  -14.1 °C 998.2 in /  33799.1 hPa Calm     85 % 0.0 in /  0 mm 79.0 W/m2 CLR
17:41 9.1 °F /  -12.7 °C 6.7 °F /  -14.1 °C 998.2 in /  33799.1 hPa Calm     85 % 0.0 in /  0 mm 67.0 W/m2 FEW
17:46 8.9 °F /  -12.8 °C 6.6 °F /  -14.1 °C 998.2 in /  33799.1 hPa Calm     85 % 0.0 in /  0 mm 53.0 W/m2 FEW
17:51 8.7 °F /  -12.9 °C 6.3 °F /  -14.3 °C 998.2 in /  33799.1 hPa ENE 6.4 mph /  10.3 km/h 6.4 mph /  10.3 km/h 85 % 0.0 in /  0 mm 42.0 W/m2 BKN
17:56 8.5 °F /  -13.1 °C 6.3 °F /  -14.3 °C 997.9 in /  33788.9 hPa ENE 5.6 mph /  9 km/h   86 % 0.0 in /  0 mm 42.0 W/m2 BKN
18:01 8.4 °F /  -13.1 °C 6.2 °F /  -14.3 °C 997.9 in /  33788.9 hPa East 1.9 mph /  3.1 km/h   86 % 0.0 in /  0 mm 40.0 W/m2 BKN
18:06 8.3 °F /  -13.2 °C 6.1 °F /  -14.4 °C 997.9 in /  33788.9 hPa East 1.6 mph /  2.6 km/h 1.6 mph /  2.6 km/h 86 % 0.0 in /  0 mm 30.0 W/m2 BKN
18:11 8.3 °F /  -13.2 °C 6.2 °F /  -14.3 °C 997.5 in /  33775.4 hPa Calm     87 % 0.0 in /  0 mm 21.0 W/m2 BKN
18:16 8.2 °F /  -13.2 °C 6.2 °F /  -14.3 °C 997.9 in /  33788.9 hPa Calm     87 % 0.0 in /  0 mm 18.0 W/m2 BKN
18:21 8.2 °F /  -13.2 °C 6.1 °F /  -14.4 °C 997.9 in /  33788.9 hPa Calm     87 % 0.0 in /  0 mm 16.0 W/m2 BKN
18:26 8.1 °F /  -13.3 °C 6.0 °F /  -14.4 °C 997.5 in /  33775.4 hPa Calm     87 % 0.0 in /  0 mm 12.0 W/m2 BKN
18:31 8.0 °F /  -13.3 °C 5.9 °F /  -14.5 °C 997.5 in /  33775.4 hPa East 3.7 mph /  6 km/h 3.7 mph /  6 km/h 87 % 0.0 in /  0 mm 9.0 W/m2 BKN
18:36 8.0 °F /  -13.3 °C 6.1 °F /  -14.4 °C 997.5 in /  33775.4 hPa Calm     88 % 0.0 in /  0 mm 5.0 W/m2 OVC
18:41 7.9 °F /  -13.4 °C 6.1 °F /  -14.4 °C 997.5 in /  33775.4 hPa Calm     88 % 0.0 in /  0 mm 0.0 W/m2 OVC
18:46 7.9 °F /  -13.4 °C 6.1 °F /  -14.4 °C 997.2 in /  33765.2 hPa Calm     88 % 0.0 in /  0 mm 0.0 W/m2 OVC
18:51 7.9 °F /  -13.4 °C 6.0 °F /  -14.4 °C 997.2 in /  33765.2 hPa ENE 6.4 mph /  10.3 km/h 6.4 mph /  10.3 km/h 88 % 0.0 in /  0 mm 0.0 W/m2 OVC
18:56 7.8 °F /  -13.4 °C 5.9 °F /  -14.5 °C 996.8 in /  33751.6 hPa Calm     88 % 0.0 in /  0 mm 0.0 W/m2 OVC
19:01 7.8 °F /  -13.4 °C 5.9 °F /  -14.5 °C 996.8 in /  33751.6 hPa Calm     88 % 0.0 in /  0 mm 0.0 W/m2 CLR
19:06 7.8 °F /  -13.4 °C 5.9 °F /  -14.5 °C 996.8 in /  33751.6 hPa Calm     88 % 0.0 in /  0 mm 0.0 W/m2 CLR
19:11 7.7 °F /  -13.5 °C 6.0 °F /  -14.4 °C 996.5 in /  33741.5 hPa Calm     89 % 0.0 in /  0 mm 0.0 W/m2 CLR
19:16 7.7 °F /  -13.5 °C 6.0 °F /  -14.4 °C 996.5 in /  33741.5 hPa Calm     89 % 0.0 in /  0 mm 0.0 W/m2 CLR
19:22 7.7 °F /  -13.5 °C 6.0 °F /  -14.4 °C 996.5 in /  33741.5 hPa SSE 3.7 mph /  6 km/h 3.7 mph /  6 km/h 89 % 0.0 in /  0 mm 0.0 W/m2 CLR
19:27 8.1 °F /  -13.3 °C 6.3 °F /  -14.3 °C 996.8 in /  33751.6 hPa Calm     89 % 0.0 in /  0 mm 0.0 W/m2 CLR
19:32 8.2 °F /  -13.2 °C 6.3 °F /  -14.3 °C 996.8 in /  33751.6 hPa Calm   0.2 mph /  0.3 km/h 88 % 0.0 in /  0 mm 0.0 W/m2 CLR
19:37 8.2 °F /  -13.2 °C 6.3 °F /  -14.3 °C 997.2 in /  33765.2 hPa Calm     88 % 0.0 in /  0 mm 0.0 W/m2 CLR
19:42 8.3 °F /  -13.2 °C 6.4 °F /  -14.2 °C 997.2 in /  33765.2 hPa Calm   0.3 mph /  0.5 km/h 88 % 0.0 in /  0 mm 0.0 W/m2 CLR
19:47 8.3 °F /  -13.2 °C 6.4 °F /  -14.2 °C 997.5 in /  33775.4 hPa Calm     88 % 0.0 in /  0 mm 0.0 W/m2 CLR
19:52 8.4 °F /  -13.1 °C 6.5 °F /  -14.2 °C 997.9 in /  33788.9 hPa Calm     88 % 0.0 in /  0 mm 0.0 W/m2 CLR
19:57 8.3 °F /  -13.2 °C 6.3 °F /  -14.3 °C 997.9 in /  33788.9 hPa Calm     87 % 0.0 in /  0 mm 0.0 W/m2 CLR
20:02 8.2 °F /  -13.2 °C 6.1 °F /  -14.4 °C 997.9 in /  33788.9 hPa Calm     87 % 0.0 in /  0 mm 0.0 W/m2 CLR
20:07 8.1 °F /  -13.3 °C 6.2 °F /  -14.3 °C 997.9 in /  33788.9 hPa Calm     88 % 0.0 in /  0 mm 0.0 W/m2 CLR
20:12 7.9 °F /  -13.4 °C 6.1 °F /  -14.4 °C 997.5 in /  33775.4 hPa Calm     88 % 0.0 in /  0 mm 0.0 W/m2 CLR
20:17 7.9 °F /  -13.4 °C 6.2 °F /  -14.3 °C 997.5 in /  33775.4 hPa Calm     89 % 0.0 in /  0 mm 0.0 W/m2 CLR
20:22 8.1 °F /  -13.3 °C 6.3 °F /  -14.3 °C 997.9 in /  33788.9 hPa Calm     89 % 0.0 in /  0 mm 0.0 W/m2 CLR
20:27 8.2 °F /  -13.2 °C 6.4 °F /  -14.2 °C 997.9 in /  33788.9 hPa Calm     89 % 0.0 in /  0 mm 0.0 W/m2 CLR
20:32 8.3 °F /  -13.2 °C 6.6 °F /  -14.1 °C 997.9 in /  33788.9 hPa Calm     89 % 0.0 in /  0 mm 0.0 W/m2 CLR
20:37 8.7 °F /  -12.9 °C 6.8 °F /  -14 °C 997.9 in /  33788.9 hPa Calm     88 % 0.0 in /  0 mm 0.0 W/m2 CLR
20:42 8.7 °F /  -12.9 °C 6.7 °F /  -14.1 °C 997.9 in /  33788.9 hPa Calm     87 % 0.0 in /  0 mm 0.0 W/m2 CLR
20:47 8.6 °F /  -13 °C 6.6 °F /  -14.1 °C 997.5 in /  33775.4 hPa Calm     87 % 0.0 in /  0 mm 0.0 W/m2 CLR
20:52 8.5 °F /  -13.1 °C 6.4 °F /  -14.2 °C 997.5 in /  33775.4 hPa Calm     87 % 0.0 in /  0 mm 0.0 W/m2 CLR
20:57 8.7 °F /  -12.9 °C 6.8 °F /  -14 °C 997.2 in /  33765.2 hPa SSW 11.1 mph /  17.9 km/h 11.1 mph /  17.9 km/h 88 % 0.0 in /  0 mm 0.0 W/m2 CLR
21:02 9.2 °F /  -12.7 °C 7.2 °F /  -13.8 °C 997.5 in /  33775.4 hPa Calm     87 % 0.0 in /  0 mm 0.0 W/m2 CLR
21:07 9.6 °F /  -12.4 °C 7.2 °F /  -13.8 °C 997.5 in /  33775.4 hPa Calm     85 % 0.0 in /  0 mm 0.0 W/m2 CLR
21:12 9.8 °F /  -12.3 °C 7.3 °F /  -13.7 °C 997.2 in /  33765.2 hPa SE 3.7 mph /  6 km/h 3.7 mph /  6 km/h 84 % 0.0 in /  0 mm 0.0 W/m2 CLR
21:17 10.1 °F /  -12.2 °C 7.3 °F /  -13.7 °C 997.2 in /  33765.2 hPa ENE 3.7 mph /  6 km/h 3.7 mph /  6 km/h 83 % 0.0 in /  0 mm 0.0 W/m2 CLR
21:22 10.2 °F /  -12.1 °C 7.2 °F /  -13.8 °C 997.2 in /  33765.2 hPa NE 7.4 mph /  11.9 km/h 7.4 mph /  11.9 km/h 82 % 0.0 in /  0 mm 0.0 W/m2 CLR
21:27 10.1 °F /  -12.2 °C 7.2 °F /  -13.8 °C 997.5 in /  33775.4 hPa East 8.0 mph /  12.9 km/h 8.0 mph /  12.9 km/h 82 % 0.0 in /  0 mm 0.0 W/m2 CLR
21:32 10.2 °F /  -12.1 °C 7.2 °F /  -13.8 °C 997.2 in /  33765.2 hPa ENE 7.4 mph /  11.9 km/h 7.4 mph /  11.9 km/h 82 % 0.0 in /  0 mm 0.0 W/m2 CLR
21:37 10.1 °F /  -12.2 °C 7.2 °F /  -13.8 °C 997.2 in /  33765.2 hPa ENE 5.6 mph /  9 km/h 5.6 mph /  9 km/h 82 % 0.0 in /  0 mm 0.0 W/m2 CLR
21:42 10.0 °F /  -12.2 °C 7.1 °F /  -13.8 °C 997.2 in /  33765.2 hPa East 9.7 mph /  15.6 km/h 9.7 mph /  15.6 km/h 82 % 0.0 in /  0 mm 0.0 W/m2 CLR
21:47 9.8 °F /  -12.3 °C 6.8 °F /  -14 °C 996.8 in /  33751.6 hPa ENE 7.4 mph /  11.9 km/h 7.4 mph /  11.9 km/h 82 % 0.0 in /  0 mm 0.0 W/m2 CLR
21:52 9.6 °F /  -12.4 °C 6.8 °F /  -14 °C 997.2 in /  33765.2 hPa NE 5.6 mph /  9 km/h   83 % 0.0 in /  0 mm 0.0 W/m2 CLR
21:57 9.6 °F /  -12.4 °C 6.9 °F /  -13.9 °C 996.8 in /  33751.6 hPa Calm     83 % 0.0 in /  0 mm 0.0 W/m2 CLR
22:02 9.7 °F /  -12.4 °C 6.9 °F /  -13.9 °C 996.8 in /  33751.6 hPa Calm     83 % 0.0 in /  0 mm 0.0 W/m2 CLR
22:07 9.8 °F /  -12.3 °C 7.1 °F /  -13.8 °C 996.8 in /  33751.6 hPa Calm     83 % 0.0 in /  0 mm 0.0 W/m2 CLR
22:12 9.9 °F /  -12.3 °C 7.0 °F /  -13.9 °C 996.8 in /  33751.6 hPa Calm     82 % 0.0 in /  0 mm 0.0 W/m2 CLR
22:17 9.9 °F /  -12.3 °C 7.0 °F /  -13.9 °C 997.2 in /  33765.2 hPa Calm     82 % 0.0 in /  0 mm 0.0 W/m2 CLR
22:22 9.9 °F /  -12.3 °C 7.0 °F /  -13.9 °C 997.2 in /  33765.2 hPa NE 5.6 mph /  9 km/h 5.6 mph /  9 km/h 82 % 0.0 in /  0 mm 0.0 W/m2 CLR
22:27 9.9 °F /  -12.3 °C 6.9 °F /  -13.9 °C 997.2 in /  33765.2 hPa Calm     82 % 0.0 in /  0 mm 0.0 W/m2 CLR
22:32 9.9 °F /  -12.3 °C 7.0 °F /  -13.9 °C 997.5 in /  33775.4 hPa Calm     82 % 0.0 in /  0 mm 0.0 W/m2 CLR
22:37 9.9 °F /  -12.3 °C 7.0 °F /  -13.9 °C 997.2 in /  33765.2 hPa Calm     82 % 0.0 in /  0 mm 0.0 W/m2 CLR
22:42 9.8 °F /  -12.3 °C 6.9 °F /  -13.9 °C 997.5 in /  33775.4 hPa Calm     82 % 0.0 in /  0 mm 0.0 W/m2 CLR
22:47 9.7 °F /  -12.4 °C 6.8 °F /  -14 °C 997.5 in /  33775.4 hPa Calm     82 % 0.0 in /  0 mm 0.0 W/m2 CLR
22:52 9.6 °F /  -12.4 °C 6.9 °F /  -13.9 °C 997.2 in /  33765.2 hPa Calm     83 % 0.0 in /  0 mm 0.0 W/m2 CLR
22:57 9.4 °F /  -12.6 °C 6.7 °F /  -14.1 °C 997.2 in /  33765.2 hPa Calm     83 % 0.0 in /  0 mm 0.0 W/m2 CLR
23:02 9.3 °F /  -12.6 °C 6.7 °F /  -14.1 °C 996.8 in /  33751.6 hPa Calm     84 % 0.0 in /  0 mm 0.0 W/m2 CLR
23:07 9.2 °F /  -12.7 °C 6.8 °F /  -14 °C 996.8 in /  33751.6 hPa Calm     85 % 0.0 in /  0 mm 0.0 W/m2 CLR
23:12 9.3 °F /  -12.6 °C 6.9 °F /  -13.9 °C 996.8 in /  33751.6 hPa Calm     85 % 0.0 in /  0 mm 0.0 W/m2 CLR
23:17 9.3 °F /  -12.6 °C 6.7 °F /  -14.1 °C 996.8 in /  33751.6 hPa Calm     84 % 0.0 in /  0 mm 0.0 W/m2 CLR
23:22 9.2 °F /  -12.7 °C 6.8 °F /  -14 °C 996.8 in /  33751.6 hPa Calm     85 % 0.0 in /  0 mm 0.0 W/m2 CLR
23:27 9.1 °F /  -12.7 °C 6.7 °F /  -14.1 °C 996.8 in /  33751.6 hPa Calm     85 % 0.0 in /  0 mm 0.0 W/m2 CLR
23:32 9.1 °F /  -12.7 °C 6.7 °F /  -14.1 °C 997.2 in /  33765.2 hPa Calm     85 % 0.0 in /  0 mm 0.0 W/m2 CLR
23:37 9.1 °F /  -12.7 °C 6.7 °F /  -14.1 °C 997.2 in /  33765.2 hPa Calm     85 % 0.0 in /  0 mm 0.0 W/m2 CLR
23:42 8.9 °F /  -12.8 °C 6.6 °F /  -14.1 °C 997.2 in /  33765.2 hPa Calm     85 % 0.0 in /  0 mm 0.0 W/m2 CLR
23:47 8.9 °F /  -12.8 °C 6.7 °F /  -14.1 °C 997.2 in /  33765.2 hPa Calm     86 % 0.0 in /  0 mm 0.0 W/m2 CLR
23:52 8.8 °F /  -12.9 °C 6.6 °F /  -14.1 °C 997.2 in /  33765.2 hPa Calm     86 % 0.0 in /  0 mm 0.0 W/m2 CLR
23:57 8.8 °F /  -12.9 °C 6.6 °F /  -14.1 °C 996.8 in /  33751.6 hPa Calm     86 % 0.0 in /  0 mm 0.0 W/m2 CLR
Lo Temps de Massalio
Compliments of Weather Underground - 1.25 mb